createdAt,value
2023-02-15T00:07:48.173Z,99.90
2023-02-15T00:53:09.880Z,99.90
2023-02-15T00:58:13.121Z,99.90
2023-02-15T01:03:17.338Z,99.90
2023-02-15T01:23:26.381Z,99.90
2023-02-15T01:28:29.467Z,99.90
2023-02-15T01:38:34.327Z,99.90
2023-02-15T01:43:44.751Z,99.90
2023-02-15T01:48:51.155Z,99.90
2023-02-15T01:53:59.268Z,99.90
2023-02-15T01:59:07.061Z,99.90
2023-02-15T02:04:26.859Z,99.90
2023-02-15T02:14:32.147Z,99.90
2023-02-15T02:20:15.052Z,99.90
2023-02-15T02:25:35.582Z,99.90
2023-02-15T02:31:01.791Z,99.90
2023-02-15T02:36:16.110Z,99.90
2023-02-15T02:41:42.130Z,99.90
2023-02-15T02:46:51.718Z,99.90
2023-02-15T02:52:04.517Z,99.90
2023-02-15T02:57:10.288Z,99.90
2023-02-15T03:02:22.566Z,99.90
2023-02-15T03:12:34.732Z,99.90
2023-02-15T03:17:41.911Z,99.90
2023-02-15T03:22:52.103Z,99.90
2023-02-15T03:27:59.107Z,99.90
2023-02-15T03:33:02.013Z,99.90
2023-02-15T03:38:09.320Z,99.90
2023-02-15T03:43:31.363Z,99.90
2023-02-15T03:48:39.308Z,99.90
2023-02-15T03:53:42.897Z,99.90
2023-02-15T04:04:20.702Z,99.90
2023-02-15T04:30:50.329Z,99.90
2023-02-15T05:26:40.697Z,99.90
2023-02-15T05:31:45.501Z,99.90
2023-02-15T06:07:01.724Z,99.90
2023-02-15T06:12:04.004Z,99.90
2023-02-15T06:17:06.387Z,99.90
2023-02-15T06:22:08.368Z,99.90
2023-02-15T06:27:13.173Z,99.90
2023-02-15T07:07:31.880Z,99.90
2023-02-15T07:12:45.994Z,99.90
2023-02-15T07:17:51.571Z,99.90
2023-02-15T07:28:01.776Z,99.90
2023-02-15T07:33:22.702Z,99.90
2023-02-15T07:38:26.020Z,99.90
2023-02-15T07:43:30.541Z,99.90
2023-02-15T07:48:32.669Z,99.90
2023-02-15T07:53:35.358Z,99.90
2023-02-15T07:58:52.663Z,99.90
2023-02-15T08:03:55.515Z,99.90
2023-02-15T08:08:57.436Z,99.90
2023-02-15T08:14:11.250Z,99.90
2023-02-15T08:19:23.911Z,99.90
2023-02-15T08:24:28.296Z,99.90
2023-02-15T08:29:31.206Z,99.90
2023-02-15T08:34:36.385Z,99.90
2023-02-15T08:39:38.489Z,99.90
2023-02-15T08:44:40.242Z,99.90
2023-02-15T08:54:44.549Z,99.90
2023-02-15T08:59:47.274Z,99.90
2023-02-15T09:04:50.803Z,99.90
2023-02-15T09:09:52.577Z,99.90
2023-02-15T09:14:55.937Z,99.90
2023-02-15T09:19:58.217Z,99.90
2023-02-15T09:24:59.985Z,99.90
2023-02-15T09:46:02.968Z,99.90
2023-02-15T09:51:22.805Z,99.90
2023-02-15T09:56:38.831Z,99.90
2023-02-15T10:02:12.811Z,99.90
2023-02-15T10:07:35.652Z,99.90
2023-02-15T10:12:58.769Z,99.90
2023-02-15T10:18:22.229Z,99.90
2023-02-15T10:23:32.668Z,99.90
2023-02-15T10:28:49.724Z,99.90
2023-02-15T10:34:38.309Z,99.90
2023-02-15T10:39:58.348Z,99.90
2023-02-15T10:45:21.252Z,99.90
2023-02-15T10:50:38.389Z,99.90
2023-02-15T10:56:16.414Z,99.90
2023-02-15T11:01:31.929Z,99.90
2023-02-15T11:06:35.829Z,99.90
2023-02-15T11:11:42.003Z,99.90
2023-02-15T11:16:46.929Z,99.90
2023-02-15T11:21:52.946Z,99.90
2023-02-15T11:27:04.137Z,99.90
2023-02-15T11:32:17.228Z,99.40
2023-02-15T11:37:28.346Z,94.10
2023-02-15T11:42:33.905Z,94.40
2023-02-15T11:47:35.759Z,92.70
2023-02-15T11:52:37.596Z,91.80
2023-02-15T11:57:45.108Z,89.70
2023-02-15T12:02:53.136Z,89.30
2023-02-15T12:08:08.420Z,86.00
2023-02-15T12:13:13.027Z,74.50
2023-02-15T12:18:36.465Z,76.00
2023-02-15T12:23:49.569Z,72.80
2023-02-15T12:28:53.326Z,69.40
2023-02-15T12:33:59.100Z,65.90
2023-02-15T12:39:20.609Z,60.60
2023-02-15T12:44:29.944Z,64.80
2023-02-15T12:49:36.508Z,65.20
2023-02-15T12:54:39.740Z,67.40
2023-02-15T13:00:09.528Z,70.70
2023-02-15T13:05:14.756Z,70.70
2023-02-15T13:11:01.425Z,73.00
2023-02-15T13:16:10.889Z,74.30
2023-02-15T13:21:19.723Z,78.10
2023-02-15T13:26:24.774Z,77.00
2023-02-15T13:31:29.554Z,71.70
2023-02-15T13:36:49.401Z,66.70
2023-02-15T13:42:01.162Z,54.20
2023-02-15T13:47:06.022Z,52.80
2023-02-15T13:52:24.288Z,52.00
2023-02-15T13:58:01.260Z,46.70
2023-02-15T14:03:13.398Z,44.40
2023-02-15T14:08:21.498Z,42.90
2023-02-15T14:13:52.405Z,43.40
2023-02-15T14:19:03.246Z,42.60
2023-02-15T14:24:30.596Z,41.00
2023-02-15T14:30:04.366Z,38.80
2023-02-15T14:35:18.831Z,39.10
2023-02-15T14:40:58.987Z,38.80
2023-02-15T14:46:28.809Z,39.30
2023-02-15T14:51:48.783Z,38.80
2023-02-15T14:57:13.834Z,39.70
2023-02-15T15:02:29.175Z,41.10
2023-02-15T15:07:47.513Z,42.60
2023-02-15T15:12:57.705Z,45.20
2023-02-15T15:18:09.360Z,50.00
2023-02-15T15:28:34.510Z,61.30
2023-02-15T15:34:13.028Z,62.10
2023-02-15T15:39:37.865Z,70.90
2023-02-15T15:45:00.372Z,71.60
2023-02-15T15:50:02.598Z,74.30
2023-02-15T15:55:16.716Z,77.20
2023-02-15T16:00:36.886Z,77.90
2023-02-15T16:05:40.123Z,77.70
2023-02-15T16:10:42.251Z,79.40
2023-02-15T16:15:51.049Z,80.20
2023-02-15T16:20:58.015Z,83.50
2023-02-15T16:26:34.096Z,84.50
2023-02-15T16:31:36.035Z,85.20
2023-02-15T16:41:40.237Z,88.70
2023-02-15T16:46:44.937Z,90.20
2023-02-15T16:52:00.621Z,90.80
2023-02-15T16:57:03.184Z,91.60
2023-02-15T17:02:11.642Z,91.80
2023-02-15T17:07:17.578Z,92.20
2023-02-15T17:13:16.858Z,92.80
2023-02-15T17:18:23.772Z,93.40
2023-02-15T17:23:35.631Z,93.50
2023-02-15T17:28:37.811Z,93.90
2023-02-15T17:33:40.389Z,94.90
2023-02-15T17:39:07.732Z,95.10
2023-02-15T17:44:14.791Z,95.70
2023-02-15T17:49:29.358Z,96.70
2023-02-15T17:54:49.559Z,96.20
2023-02-15T18:00:10.411Z,96.40
2023-02-15T18:05:34.663Z,97.30
2023-02-15T18:10:55.038Z,97.30
2023-02-15T18:15:57.611Z,98.10
2023-02-15T18:20:59.434Z,98.50
2023-02-15T18:26:01.267Z,98.70
2023-02-15T18:37:50.655Z,99.60
2023-02-15T18:42:52.434Z,99.50
2023-02-15T18:47:55.271Z,99.90
2023-02-15T18:52:57.217Z,99.90
2023-02-15T18:57:59.289Z,99.90
2023-02-15T19:03:02.314Z,99.90
2023-02-15T19:08:04.756Z,99.90
2023-02-15T19:13:12.147Z,99.90
2023-02-15T19:18:14.009Z,99.90
2023-02-15T19:23:20.672Z,99.90
2023-02-15T19:28:32.664Z,99.90
2023-02-15T19:33:34.885Z,99.90
2023-02-15T19:38:36.966Z,99.90
2023-02-15T19:43:38.841Z,99.90
2023-02-15T19:48:40.598Z,99.90
2023-02-15T19:53:42.804Z,99.90
2023-02-15T19:58:44.622Z,99.90
2023-02-15T20:03:46.447Z,99.90
2023-02-15T20:08:48.492Z,99.90
2023-02-15T20:13:50.276Z,99.90
2023-02-15T20:18:52.173Z,99.90
2023-02-15T20:23:54.189Z,99.90
2023-02-15T20:28:56.047Z,99.90
2023-02-15T20:33:58.694Z,99.90
2023-02-15T20:39:03.128Z,99.90
2023-02-15T20:44:27.652Z,99.90
2023-02-15T20:49:29.572Z,99.90
2023-02-15T20:54:35.051Z,99.90
2023-02-15T20:59:37.624Z,99.90
2023-02-15T21:04:39.488Z,99.90
2023-02-15T21:09:41.204Z,99.90
2023-02-15T21:14:44.012Z,99.90
2023-02-15T21:19:46.300Z,99.90
2023-02-15T21:24:51.367Z,99.90
2023-02-15T21:29:53.118Z,99.90
2023-02-15T21:34:54.944Z,99.90
2023-02-15T21:39:56.816Z,99.90
2023-02-15T21:45:17.100Z,99.90
2023-02-15T21:50:44.013Z,99.90
2023-02-15T21:55:45.752Z,99.90
2023-02-15T22:00:48.407Z,99.90
2023-02-15T22:05:50.372Z,99.90
2023-02-15T22:10:54.763Z,99.90
2023-02-15T22:15:57.088Z,99.90
2023-02-15T22:21:02.025Z,99.90
2023-02-15T22:26:14.030Z,99.90
2023-02-15T22:31:20.971Z,99.90
2023-02-15T22:36:24.708Z,99.90
2023-02-15T22:41:29.820Z,99.90
2023-02-15T22:46:31.899Z,99.90
2023-02-15T22:51:33.636Z,99.90
2023-02-15T22:56:41.859Z,99.90
2023-02-15T23:01:43.623Z,99.90
2023-02-15T23:06:46.117Z,99.90
2023-02-15T23:11:49.997Z,99.90
2023-02-15T23:16:51.888Z,99.90
2023-02-15T23:21:53.865Z,99.90
2023-02-15T23:27:15.959Z,99.90
2023-02-15T23:32:18.139Z,99.90
2023-02-15T23:37:19.942Z,99.90
2023-02-15T23:42:27.822Z,99.90
2023-02-15T23:47:52.049Z,99.90
2023-02-15T23:52:55.313Z,99.90
2023-02-15T23:57:57.069Z,99.90
